createdAt,value
2023-01-15T00:00:27.418Z,958.92
2023-01-15T00:00:59.036Z,958.92
2023-01-15T00:01:29.373Z,959.23
2023-01-15T00:02:01.145Z,959.23
2023-01-15T00:02:31.437Z,959.02
2023-01-15T00:03:03.363Z,959.02
2023-01-15T00:03:34.141Z,959.02
2023-01-15T00:04:05.485Z,959.02
2023-01-15T00:04:35.740Z,959.02
2023-01-15T00:05:07.893Z,958.82
2023-01-15T00:05:37.366Z,958.82
2023-01-15T00:06:09.017Z,958.92
2023-01-15T00:06:39.936Z,958.92
2023-01-15T00:07:11.031Z,958.72
2023-01-15T00:07:41.302Z,958.72
2023-01-15T00:08:13.071Z,958.82
2023-01-15T00:08:43.436Z,958.82
2023-01-15T00:09:15.085Z,959.02
2023-01-15T00:09:45.795Z,959.02
2023-01-15T00:10:17.989Z,958.92
2023-01-15T00:10:47.480Z,958.92
2023-01-15T00:11:18.975Z,958.92
2023-01-15T00:11:49.362Z,958.92
2023-01-15T00:12:21.782Z,958.92
2023-01-15T00:12:51.328Z,958.92
2023-01-15T00:13:23.848Z,958.82
2023-01-15T00:13:53.401Z,958.82
2023-01-15T00:14:25.523Z,958.82
2023-01-15T00:14:56.295Z,958.82
2023-01-15T00:15:28.003Z,958.92
2023-01-15T00:15:57.359Z,958.92
2023-01-15T00:16:29.129Z,959.02
2023-01-15T00:16:59.602Z,959.02
2023-01-15T00:17:31.205Z,958.92
2023-01-15T00:18:01.325Z,958.92
2023-01-15T00:18:33.997Z,958.72
2023-01-15T00:19:03.334Z,958.72
2023-01-15T00:19:36.447Z,958.72
2023-01-15T00:20:06.331Z,958.92
2023-01-15T00:20:38.356Z,958.92
2023-01-15T00:21:07.317Z,958.82
2023-01-15T00:21:39.062Z,958.82
2023-01-15T00:22:09.361Z,958.82
2023-01-15T00:22:41.085Z,958.82
2023-01-15T00:23:11.309Z,958.72
2023-01-15T00:23:43.114Z,958.72
2023-01-15T00:24:13.556Z,958.82
2023-01-15T00:24:45.303Z,958.82
2023-01-15T00:25:15.697Z,958.72
2023-01-15T00:25:48.061Z,958.72
2023-01-15T00:26:17.317Z,958.82
2023-01-15T00:26:48.967Z,958.82
2023-01-15T00:27:19.522Z,958.92
2023-01-15T00:27:50.943Z,958.92
2023-01-15T00:28:21.308Z,958.82
2023-01-15T00:28:53.112Z,958.82
2023-01-15T00:29:23.387Z,958.52
2023-01-15T00:29:55.017Z,958.52
2023-01-15T00:30:26.170Z,958.82
2023-01-15T00:30:58.657Z,958.82
2023-01-15T00:31:27.377Z,958.92
2023-01-15T00:31:58.317Z,958.92
2023-01-15T00:32:30.259Z,958.72
2023-01-15T00:33:00.458Z,958.72
2023-01-15T00:33:32.430Z,958.52
2023-01-15T00:34:02.488Z,958.82
2023-01-15T00:34:34.135Z,958.82
2023-01-15T00:35:05.600Z,958.72
2023-01-15T00:35:36.189Z,958.72
2023-01-15T00:36:08.009Z,958.72
2023-01-15T00:36:37.944Z,958.72
2023-01-15T00:37:08.345Z,958.72
2023-01-15T00:37:40.483Z,958.72
2023-01-15T00:38:10.346Z,958.62
2023-01-15T00:38:42.101Z,958.62
2023-01-15T00:39:12.299Z,958.52
2023-01-15T00:39:44.104Z,958.52
2023-01-15T00:40:15.341Z,958.52
2023-01-15T00:40:47.076Z,958.52
2023-01-15T00:41:17.323Z,958.41
2023-01-15T00:41:47.930Z,958.41
2023-01-15T00:42:18.335Z,958.52
2023-01-15T00:42:54.711Z,958.52
2023-01-15T00:43:20.450Z,958.52
2023-01-15T00:43:52.199Z,958.52
2023-01-15T00:44:22.571Z,958.72
2023-01-15T00:44:54.122Z,958.72
2023-01-15T00:45:25.783Z,958.72
2023-01-15T00:45:55.975Z,958.72
2023-01-15T00:46:27.396Z,958.72
2023-01-15T00:46:58.460Z,958.72
2023-01-15T00:47:28.351Z,958.41
2023-01-15T00:48:00.031Z,958.41
2023-01-15T00:48:30.455Z,958.52
2023-01-15T00:49:02.059Z,958.52
2023-01-15T00:49:32.356Z,958.62
2023-01-15T00:50:04.620Z,958.62
2023-01-15T00:50:34.861Z,958.62
2023-01-15T00:51:06.190Z,958.62
2023-01-15T00:51:37.329Z,958.62
2023-01-15T00:52:07.892Z,958.52
2023-01-15T00:52:38.305Z,958.52
2023-01-15T00:53:10.049Z,958.41
2023-01-15T00:53:40.335Z,958.41
2023-01-15T00:54:12.059Z,958.41
2023-01-15T00:54:42.328Z,958.41
2023-01-15T00:55:14.332Z,958.21
2023-01-15T00:55:44.605Z,958.21
2023-01-15T00:56:16.820Z,958.31
2023-01-15T00:56:47.320Z,958.31
2023-01-15T00:57:17.896Z,958.31
2023-01-15T00:57:48.380Z,958.31
2023-01-15T00:58:20.095Z,958.52
2023-01-15T00:58:50.331Z,958.52
2023-01-15T00:59:22.312Z,958.82
2023-01-15T00:59:52.345Z,958.82
2023-01-15T01:00:25.180Z,958.72
2023-01-15T01:00:54.469Z,958.72
2023-01-15T01:01:26.046Z,958.52
2023-01-15T01:01:57.487Z,958.52
2023-01-15T01:02:28.121Z,958.41
2023-01-15T01:03:07.291Z,958.41
2023-01-15T01:03:30.868Z,958.62
2023-01-15T01:04:00.385Z,958.62
2023-01-15T01:04:32.372Z,958.62
2023-01-15T01:05:02.874Z,958.41
2023-01-15T01:05:34.938Z,958.41
2023-01-15T01:06:04.626Z,958.41
2023-01-15T01:06:37.101Z,958.41
2023-01-15T01:07:07.355Z,958.41
2023-01-15T01:07:38.100Z,958.41
2023-01-15T01:08:08.393Z,958.62
2023-01-15T01:08:40.169Z,958.62
2023-01-15T01:09:10.299Z,958.62
2023-01-15T01:09:42.188Z,958.62
2023-01-15T01:10:12.723Z,958.52
2023-01-15T01:10:44.632Z,958.52
2023-01-15T01:11:14.358Z,958.52
2023-01-15T01:11:46.173Z,958.52
2023-01-15T01:12:17.733Z,958.52
2023-01-15T01:12:48.184Z,958.52
2023-01-15T01:13:18.298Z,958.62
2023-01-15T01:13:50.528Z,958.62
2023-01-15T01:14:20.388Z,958.82
2023-01-15T01:14:52.294Z,958.82
2023-01-15T01:15:23.360Z,958.82
2023-01-15T01:15:54.404Z,958.82
2023-01-15T01:16:25.138Z,958.92
2023-01-15T01:16:57.108Z,958.92
2023-01-15T01:17:27.319Z,958.72
2023-01-15T01:17:58.514Z,958.72
2023-01-15T01:18:28.291Z,959.02
2023-01-15T01:19:00.352Z,959.02
2023-01-15T01:19:30.421Z,958.82
2023-01-15T01:20:02.566Z,958.82
2023-01-15T01:20:35.482Z,958.72
2023-01-15T01:21:04.092Z,958.82
2023-01-15T01:21:35.869Z,958.82
2023-01-15T01:22:06.292Z,958.82
2023-01-15T01:22:37.356Z,958.82
2023-01-15T01:23:07.989Z,958.62
2023-01-15T01:23:38.594Z,958.62
2023-01-15T01:24:10.137Z,958.72
2023-01-15T01:24:40.454Z,958.72
2023-01-15T01:25:12.441Z,958.62
2023-01-15T01:25:42.271Z,958.62
2023-01-15T01:26:14.051Z,958.62
2023-01-15T01:26:44.686Z,958.62
2023-01-15T01:27:15.331Z,958.62
2023-01-15T01:27:48.428Z,958.62
2023-01-15T01:28:17.369Z,958.72
2023-01-15T01:28:49.196Z,958.72
2023-01-15T01:29:19.301Z,958.62
2023-01-15T01:29:50.992Z,958.62
2023-01-15T01:30:23.449Z,958.72
2023-01-15T01:30:53.153Z,958.72
2023-01-15T01:31:23.884Z,958.62
2023-01-15T01:31:55.000Z,958.62
2023-01-15T01:32:25.556Z,958.52
2023-01-15T01:32:57.872Z,958.52
2023-01-15T01:33:27.782Z,958.62
2023-01-15T01:34:03.197Z,958.62
2023-01-15T01:34:29.286Z,958.41
2023-01-15T01:35:02.232Z,958.41
2023-01-15T01:35:31.439Z,958.41
2023-01-15T01:36:03.116Z,958.31
2023-01-15T01:36:33.400Z,958.31
2023-01-15T01:37:05.354Z,958.21
2023-01-15T01:37:35.412Z,958.21
2023-01-15T01:38:08.055Z,958.11
2023-01-15T01:38:37.443Z,958.11
2023-01-15T01:39:08.926Z,958.21
2023-01-15T01:39:39.377Z,958.21
2023-01-15T01:40:11.525Z,958.21
2023-01-15T01:40:41.339Z,958.21
2023-01-15T01:41:13.312Z,958.11
2023-01-15T01:41:43.334Z,958.11
2023-01-15T01:42:14.924Z,958.11
2023-01-15T01:42:45.310Z,958.11
2023-01-15T01:43:18.517Z,958.01
2023-01-15T01:43:47.321Z,958.01
2023-01-15T01:44:21.104Z,957.74
2023-01-15T01:44:49.484Z,957.74
2023-01-15T01:45:21.185Z,957.64
2023-01-15T01:45:52.132Z,957.64
2023-01-15T01:46:22.256Z,957.84
2023-01-15T01:46:53.984Z,957.84
2023-01-15T01:47:25.119Z,957.53
2023-01-15T01:47:55.886Z,957.53
2023-01-15T01:48:27.489Z,957.84
2023-01-15T01:48:57.889Z,957.84
2023-01-15T01:49:28.291Z,957.94
2023-01-15T01:50:01.540Z,957.94
2023-01-15T01:50:30.356Z,957.74
2023-01-15T01:51:02.142Z,957.74
2023-01-15T01:51:32.563Z,957.53
2023-01-15T01:52:03.991Z,957.64
2023-01-15T01:52:34.267Z,957.64
2023-01-15T01:53:05.884Z,957.64
2023-01-15T01:53:37.550Z,957.64
2023-01-15T01:54:08.337Z,957.74
2023-01-15T01:54:38.288Z,957.74
2023-01-15T01:55:10.813Z,957.53
2023-01-15T01:55:40.302Z,957.53
2023-01-15T01:56:12.193Z,957.43
2023-01-15T01:56:42.328Z,957.43
2023-01-15T01:57:13.904Z,957.43
2023-01-15T01:57:44.609Z,957.43
2023-01-15T01:58:16.001Z,957.33
2023-01-15T01:58:47.296Z,957.33
2023-01-15T01:59:18.028Z,957.33
2023-01-15T01:59:48.344Z,957.33
2023-01-15T02:00:21.004Z,957.43
2023-01-15T02:00:51.645Z,957.43
2023-01-15T02:01:22.446Z,957.13
2023-01-15T02:01:52.482Z,957.13
2023-01-15T02:02:24.104Z,957.33
2023-01-15T02:02:54.301Z,957.33
2023-01-15T02:03:26.072Z,957.43
2023-01-15T02:03:57.271Z,957.43
2023-01-15T02:04:27.971Z,957.33
2023-01-15T02:04:58.961Z,957.33
2023-01-15T02:05:29.890Z,957.33
2023-01-15T02:06:00.344Z,957.33
2023-01-15T02:06:31.939Z,957.33
2023-01-15T02:07:02.453Z,957.33
2023-01-15T02:07:35.340Z,957.33
2023-01-15T02:08:04.589Z,957.33
2023-01-15T02:08:36.037Z,957.33
2023-01-15T02:09:07.289Z,957.33
2023-01-15T02:09:37.950Z,957.33
2023-01-15T02:10:08.954Z,957.33
2023-01-15T02:10:39.902Z,957.33
2023-01-15T02:11:10.335Z,957.23
2023-01-15T02:11:42.080Z,957.23
2023-01-15T02:12:12.365Z,957.13
2023-01-15T02:12:44.078Z,957.13
2023-01-15T02:13:14.280Z,957.13
2023-01-15T02:13:45.884Z,957.13
2023-01-15T02:14:17.667Z,957.03
2023-01-15T02:14:47.969Z,957.03
2023-01-15T02:15:19.135Z,957.23
2023-01-15T02:15:50.009Z,957.23
2023-01-15T02:16:20.305Z,957.33
2023-01-15T02:16:52.533Z,957.33
2023-01-15T02:17:22.284Z,957.23
2023-01-15T02:17:53.892Z,957.23
2023-01-15T02:18:24.678Z,957.23
2023-01-15T02:18:55.867Z,957.23
2023-01-15T02:19:27.276Z,957.33
2023-01-15T02:19:57.879Z,957.33
2023-01-15T02:20:36.936Z,957.23
2023-01-15T02:21:00.891Z,957.23
2023-01-15T02:21:30.316Z,957.13
2023-01-15T02:22:02.006Z,957.13
2023-01-15T02:22:32.275Z,957.33
2023-01-15T02:23:04.015Z,957.43
2023-01-15T02:23:34.383Z,957.43
2023-01-15T02:24:06.301Z,957.23
2023-01-15T02:24:37.716Z,957.23
2023-01-15T02:25:08.656Z,957.43
2023-01-15T02:25:38.327Z,957.43
2023-01-15T02:26:09.888Z,957.23
2023-01-15T02:26:40.302Z,957.23
2023-01-15T02:27:11.398Z,957.53
2023-01-15T02:27:42.499Z,957.53
2023-01-15T02:28:14.118Z,957.43
2023-01-15T02:28:44.603Z,957.43
2023-01-15T02:29:15.891Z,957.53
2023-01-15T02:29:47.332Z,957.53
2023-01-15T02:30:19.960Z,957.74
2023-01-15T02:30:48.408Z,957.74
2023-01-15T02:31:20.065Z,957.74
2023-01-15T02:31:50.685Z,957.74
2023-01-15T02:32:22.099Z,957.74
2023-01-15T02:32:52.301Z,957.74
2023-01-15T02:33:24.029Z,957.74
2023-01-15T02:33:54.279Z,957.74
2023-01-15T02:34:26.262Z,957.94
2023-01-15T02:35:00.483Z,957.94
2023-01-15T02:35:28.319Z,958.01
2023-01-15T02:35:58.302Z,958.01
2023-01-15T02:36:30.045Z,957.94
2023-01-15T02:37:00.406Z,957.94
2023-01-15T02:37:31.927Z,957.94
2023-01-15T02:38:02.373Z,958.01
2023-01-15T02:38:33.998Z,958.01
2023-01-15T02:39:04.634Z,958.01
2023-01-15T02:39:35.938Z,958.01
2023-01-15T02:40:07.772Z,957.84
2023-01-15T02:40:38.055Z,957.84
2023-01-15T02:41:08.298Z,958.11
2023-01-15T02:41:39.997Z,958.11
2023-01-15T02:42:10.315Z,958.31
2023-01-15T02:42:42.297Z,958.31
2023-01-15T02:43:12.743Z,958.31
2023-01-15T02:43:44.173Z,958.31
2023-01-15T02:44:14.269Z,958.31
2023-01-15T02:44:45.918Z,958.31
2023-01-15T02:45:18.462Z,958.11
2023-01-15T02:45:48.253Z,958.11
2023-01-15T02:46:18.401Z,958.31
2023-01-15T02:46:49.906Z,958.31
2023-01-15T02:47:20.358Z,958.21
2023-01-15T02:47:52.540Z,958.21
2023-01-15T02:48:22.375Z,958.21
2023-01-15T02:48:54.016Z,958.21
2023-01-15T02:49:24.583Z,958.11
2023-01-15T02:49:55.902Z,958.11
2023-01-15T02:50:28.163Z,958.21
2023-01-15T02:50:57.973Z,958.21
2023-01-15T02:51:28.288Z,958.11
2023-01-15T02:51:59.894Z,958.11
2023-01-15T02:52:30.356Z,958.31
2023-01-15T02:53:01.999Z,958.31
2023-01-15T02:53:32.724Z,958.11
2023-01-15T02:54:04.010Z,958.21
2023-01-15T02:54:36.036Z,958.21
2023-01-15T02:55:06.598Z,958.21
2023-01-15T02:55:37.301Z,958.21
2023-01-15T02:56:08.079Z,958.11
2023-01-15T02:56:38.361Z,958.11
2023-01-15T02:57:10.186Z,957.94
2023-01-15T02:57:40.307Z,957.94
2023-01-15T02:58:12.129Z,958.01
2023-01-15T02:58:43.123Z,958.01
2023-01-15T02:59:14.098Z,958.11
2023-01-15T02:59:44.795Z,958.11
2023-01-15T03:00:18.162Z,958.52
2023-01-15T03:00:55.132Z,958.52
2023-01-15T03:01:19.023Z,958.31
2023-01-15T03:01:48.612Z,958.31
2023-01-15T03:02:20.485Z,958.52
2023-01-15T03:02:50.741Z,958.52
2023-01-15T03:03:22.159Z,958.21
2023-01-15T03:03:52.338Z,958.21
2023-01-15T03:04:23.967Z,958.11
2023-01-15T03:04:54.615Z,958.11
2023-01-15T03:05:26.779Z,958.21
2023-01-15T03:05:57.636Z,958.21
2023-01-15T03:06:28.045Z,958.31
2023-01-15T03:06:58.366Z,958.31
2023-01-15T03:07:30.240Z,958.41
2023-01-15T03:08:00.301Z,958.41
2023-01-15T03:08:31.906Z,958.52
2023-01-15T03:09:02.403Z,958.52
2023-01-15T03:09:34.237Z,958.52
2023-01-15T03:10:05.963Z,958.31
2023-01-15T03:10:35.975Z,958.31
2023-01-15T03:11:07.281Z,958.31
2023-01-15T03:11:37.996Z,958.31
2023-01-15T03:12:08.816Z,958.11
2023-01-15T03:12:40.087Z,958.11
2023-01-15T03:13:10.353Z,958.41
2023-01-15T03:13:42.101Z,958.41
2023-01-15T03:14:12.296Z,958.21
2023-01-15T03:14:44.432Z,958.21
2023-01-15T03:15:15.219Z,958.21
2023-01-15T03:15:46.041Z,958.21
2023-01-15T03:16:17.338Z,958.11
2023-01-15T03:16:48.093Z,958.11
2023-01-15T03:17:18.283Z,958.31
2023-01-15T03:17:49.907Z,958.31
2023-01-15T03:18:20.336Z,958.21
2023-01-15T03:18:52.036Z,958.21
2023-01-15T03:19:22.314Z,957.94
2023-01-15T03:19:53.983Z,957.94
2023-01-15T03:20:25.679Z,957.84
2023-01-15T03:20:58.056Z,957.84
2023-01-15T03:21:27.772Z,958.01
2023-01-15T03:21:58.224Z,958.01
2023-01-15T03:22:28.459Z,958.01
2023-01-15T03:23:00.023Z,958.01
2023-01-15T03:23:30.446Z,958.01
2023-01-15T03:24:02.257Z,958.01
2023-01-15T03:24:32.351Z,957.84
2023-01-15T03:25:04.483Z,957.84
2023-01-15T03:25:34.831Z,957.84
2023-01-15T03:26:06.153Z,958.11
2023-01-15T03:26:37.376Z,958.11
2023-01-15T03:27:07.356Z,957.94
2023-01-15T03:27:38.323Z,957.94
2023-01-15T03:28:10.401Z,958.21
2023-01-15T03:28:40.312Z,958.21
2023-01-15T03:29:12.064Z,958.11
2023-01-15T03:29:42.312Z,958.11
2023-01-15T03:30:15.074Z,958.21
2023-01-15T03:30:44.686Z,958.21
2023-01-15T03:31:16.173Z,957.94
2023-01-15T03:31:47.321Z,957.94
2023-01-15T03:32:18.016Z,958.11
2023-01-15T03:32:48.393Z,958.11
2023-01-15T03:33:21.300Z,958.01
2023-01-15T03:33:50.293Z,958.01
2023-01-15T03:34:21.892Z,957.64
2023-01-15T03:34:52.288Z,957.64
2023-01-15T03:35:24.459Z,957.53
2023-01-15T03:35:54.355Z,957.53
2023-01-15T03:36:26.821Z,957.53
2023-01-15T03:36:57.524Z,957.53
2023-01-15T03:37:29.486Z,957.53
2023-01-15T03:37:58.274Z,957.53
2023-01-15T03:38:30.088Z,957.53
2023-01-15T03:39:01.083Z,957.53
2023-01-15T03:39:32.164Z,957.33
2023-01-15T03:40:02.816Z,957.23
2023-01-15T03:40:37.149Z,957.23
2023-01-15T03:41:04.674Z,957.43
2023-01-15T03:41:36.384Z,957.43
2023-01-15T03:42:07.309Z,957.43
2023-01-15T03:42:37.889Z,957.43
2023-01-15T03:43:08.294Z,957.23
2023-01-15T03:43:39.888Z,957.23
2023-01-15T03:44:10.275Z,957.43
2023-01-15T03:44:42.256Z,957.43
2023-01-15T03:45:13.696Z,957.13
2023-01-15T03:45:44.230Z,957.13
2023-01-15T03:46:14.516Z,957.13
2023-01-15T03:46:45.956Z,957.13
2023-01-15T03:47:17.269Z,957.03
2023-01-15T03:47:48.112Z,957.03
2023-01-15T03:48:18.279Z,957.03
2023-01-15T03:48:50.129Z,957.03
2023-01-15T03:49:20.327Z,956.92
2023-01-15T03:49:51.958Z,956.92
2023-01-15T03:50:22.858Z,957.23
2023-01-15T03:50:54.168Z,957.23
2023-01-15T03:51:23.955Z,957.23
2023-01-15T03:51:55.163Z,957.23
2023-01-15T03:52:26.554Z,957.23
2023-01-15T03:52:57.170Z,957.23
2023-01-15T03:53:27.563Z,957.23
2023-01-15T03:53:59.383Z,957.23
2023-01-15T03:54:29.553Z,957.23
2023-01-15T03:55:03.775Z,957.23
2023-01-15T03:55:31.570Z,957.23
2023-01-15T03:56:02.604Z,957.23
2023-01-15T03:56:34.362Z,957.23
2023-01-15T03:57:04.562Z,957.23
2023-01-15T03:57:37.266Z,957.23
2023-01-15T03:58:06.557Z,957.23
2023-01-15T03:58:38.505Z,957.23
2023-01-15T03:59:08.554Z,957.23
2023-01-15T03:59:40.259Z,957.23
2023-01-15T04:00:11.853Z,957.23
2023-01-15T04:00:44.444Z,957.23
2023-01-15T04:01:12.658Z,957.23
2023-01-15T04:01:44.576Z,957.23
2023-01-15T04:02:14.723Z,957.23
2023-01-15T04:02:47.209Z,957.23
2023-01-15T04:03:16.577Z,957.23
2023-01-15T04:03:48.270Z,957.23
2023-01-15T04:04:18.624Z,957.23
2023-01-15T04:04:50.171Z,957.23
2023-01-15T04:05:21.027Z,957.23
2023-01-15T04:05:52.289Z,957.23
2023-01-15T04:06:22.597Z,957.23
2023-01-15T04:06:55.255Z,957.23
2023-01-15T04:07:24.559Z,957.23
2023-01-15T04:07:57.264Z,957.23
2023-01-15T04:08:26.600Z,957.23
2023-01-15T04:08:58.378Z,957.23
2023-01-15T04:09:28.575Z,957.23
2023-01-15T04:10:00.640Z,957.23
2023-01-15T04:10:30.542Z,957.23
2023-01-15T04:11:02.247Z,957.23
2023-01-15T04:11:32.958Z,957.23
2023-01-15T04:12:04.638Z,957.23
2023-01-15T04:12:34.686Z,957.23
2023-01-15T04:13:07.467Z,957.23
2023-01-15T04:13:36.582Z,957.23
2023-01-15T04:14:08.149Z,957.23
2023-01-15T04:14:38.550Z,957.23
2023-01-15T04:15:11.980Z,957.23
2023-01-15T04:15:40.663Z,957.23
2023-01-15T04:16:12.540Z,957.23
2023-01-15T04:16:42.647Z,957.23
2023-01-15T04:17:14.141Z,957.23
2023-01-15T04:17:44.544Z,957.23
2023-01-15T04:18:17.311Z,957.23
2023-01-15T04:18:46.547Z,957.23
2023-01-15T04:19:18.579Z,957.23
2023-01-15T04:19:48.598Z,957.23
2023-01-15T04:20:20.707Z,957.23
2023-01-15T04:20:50.541Z,957.23
2023-01-15T04:21:22.582Z,957.23
2023-01-15T04:21:52.547Z,957.23
2023-01-15T04:22:25.261Z,957.23
2023-01-15T04:22:54.555Z,957.23
2023-01-15T04:23:27.171Z,957.23
2023-01-15T04:23:57.071Z,957.23
2023-01-15T04:24:28.269Z,957.23
2023-01-15T04:24:58.965Z,957.23
2023-01-15T04:25:31.258Z,957.23
2023-01-15T04:26:00.703Z,957.23
2023-01-15T04:26:32.165Z,957.23
2023-01-15T04:27:02.587Z,957.23
2023-01-15T04:27:34.173Z,957.23
2023-01-15T04:28:05.177Z,957.23
2023-01-15T04:28:36.655Z,957.23
2023-01-15T04:29:07.352Z,957.23
2023-01-15T04:29:37.557Z,957.23
2023-01-15T04:30:10.740Z,957.23
2023-01-15T04:30:39.725Z,957.23
2023-01-15T04:31:11.401Z,957.23
2023-01-15T04:31:41.555Z,957.23
2023-01-15T04:32:13.247Z,957.23
2023-01-15T04:32:43.866Z,957.23
2023-01-15T04:33:15.463Z,957.23
2023-01-15T04:33:46.554Z,957.23
2023-01-15T04:34:17.148Z,957.23
2023-01-15T04:34:47.563Z,957.23
2023-01-15T04:35:19.640Z,957.23
2023-01-15T04:35:49.562Z,957.23
2023-01-15T04:36:21.355Z,957.23
2023-01-15T04:36:51.550Z,957.23
2023-01-15T04:37:23.165Z,957.23
2023-01-15T04:37:53.759Z,957.23
2023-01-15T04:38:25.283Z,957.23
2023-01-15T04:38:57.158Z,957.23
2023-01-15T04:39:27.162Z,957.23
2023-01-15T04:39:57.937Z,957.23
2023-01-15T04:40:29.246Z,957.23
2023-01-15T04:40:59.550Z,957.23
2023-01-15T04:41:31.186Z,957.23
2023-01-15T04:42:01.651Z,957.23
2023-01-15T04:42:33.498Z,957.23
2023-01-15T04:43:03.843Z,957.23
2023-01-15T04:43:35.383Z,957.23
2023-01-15T04:44:06.562Z,957.23
2023-01-15T04:44:37.460Z,957.23
2023-01-15T04:45:08.645Z,957.23
2023-01-15T04:45:39.186Z,957.23
2023-01-15T04:46:09.578Z,957.23
2023-01-15T04:46:41.251Z,957.23
2023-01-15T04:47:11.638Z,957.23
2023-01-15T04:47:43.255Z,957.23
2023-01-15T04:48:13.544Z,957.23
2023-01-15T04:48:45.151Z,957.23
2023-01-15T04:49:16.566Z,957.23
2023-01-15T04:49:48.143Z,957.23
2023-01-15T04:50:18.108Z,957.23
2023-01-15T04:50:49.241Z,957.23
2023-01-15T04:51:19.538Z,957.23
2023-01-15T04:51:51.353Z,957.23
2023-01-15T04:52:21.543Z,957.23
2023-01-15T04:52:53.335Z,957.23
2023-01-15T04:53:23.842Z,957.23
2023-01-15T04:53:55.140Z,957.23
2023-01-15T04:54:26.565Z,957.23
2023-01-15T04:54:58.122Z,957.23
2023-01-15T04:55:27.572Z,957.23
2023-01-15T04:55:59.140Z,957.23
2023-01-15T04:56:29.583Z,957.23
2023-01-15T04:57:01.271Z,957.23
2023-01-15T04:57:31.537Z,957.23
2023-01-15T04:58:03.265Z,957.23
2023-01-15T04:58:33.527Z,957.23
2023-01-15T04:59:05.447Z,957.23
2023-01-15T04:59:36.534Z,957.23
2023-01-15T05:00:08.164Z,957.23
2023-01-15T05:00:37.681Z,957.23
2023-01-15T05:01:09.338Z,957.23
2023-01-15T05:01:40.488Z,957.23
2023-01-15T05:02:11.312Z,957.23
2023-01-15T05:02:41.610Z,957.23
2023-01-15T05:03:13.154Z,957.23
2023-01-15T05:03:43.843Z,957.23
2023-01-15T05:04:15.343Z,957.23
2023-01-15T05:04:46.687Z,957.23
2023-01-15T05:05:17.708Z,957.23
2023-01-15T05:05:47.548Z,957.23
2023-01-15T05:06:19.439Z,957.23
2023-01-15T05:06:49.578Z,957.23
2023-01-15T05:07:21.149Z,957.23
2023-01-15T05:07:51.576Z,957.23
2023-01-15T05:08:23.549Z,957.23
2023-01-15T05:08:53.543Z,957.23
2023-01-15T05:09:25.381Z,957.23
2023-01-15T05:09:56.948Z,957.23
2023-01-15T05:10:27.149Z,957.23
2023-01-15T05:10:57.582Z,957.23
2023-01-15T05:11:29.358Z,957.23
2023-01-15T05:11:59.742Z,957.23
2023-01-15T05:12:31.169Z,957.23
2023-01-15T05:13:01.681Z,957.23
2023-01-15T05:13:33.490Z,957.23
2023-01-15T05:14:03.865Z,957.23
2023-01-15T05:14:35.289Z,957.23
2023-01-15T05:15:07.463Z,957.23
2023-01-15T05:15:37.523Z,957.23
2023-01-15T05:16:07.614Z,957.23
2023-01-15T05:16:39.252Z,957.23
2023-01-15T05:17:09.568Z,957.23
2023-01-15T05:17:42.143Z,957.23
2023-01-15T05:18:11.548Z,957.23
2023-01-15T05:18:43.161Z,957.23
2023-01-15T05:19:13.546Z,957.23
2023-01-15T05:19:45.232Z,957.23
2023-01-15T05:20:17.005Z,957.23
2023-01-15T05:20:47.236Z,957.23
2023-01-15T05:21:17.543Z,957.23
2023-01-15T05:21:49.248Z,957.23
2023-01-15T05:22:19.537Z,957.23
2023-01-15T05:22:51.329Z,957.23
2023-01-15T05:23:21.743Z,957.23
2023-01-15T05:23:53.173Z,957.23
2023-01-15T05:24:24.110Z,957.23
2023-01-15T05:24:55.835Z,957.23
2023-01-15T05:25:26.528Z,957.23
2023-01-15T05:25:57.128Z,957.23
2023-01-15T05:26:27.573Z,957.23
2023-01-15T05:26:58.566Z,957.23
2023-01-15T05:27:29.771Z,957.23
2023-01-15T05:28:01.233Z,957.23
2023-01-15T05:28:31.540Z,957.23
2023-01-15T05:29:03.161Z,957.23
2023-01-15T05:29:33.539Z,957.23
2023-01-15T05:30:06.570Z,957.23
2023-01-15T05:30:36.598Z,957.23
2023-01-15T05:31:07.178Z,957.23
2023-01-15T05:31:37.533Z,957.23
2023-01-15T05:32:09.800Z,957.23
2023-01-15T05:32:39.540Z,957.23
2023-01-15T05:33:12.224Z,957.23
2023-01-15T05:33:41.535Z,957.23
2023-01-15T05:34:13.351Z,957.23
2023-01-15T05:34:43.835Z,957.23
2023-01-15T05:35:15.579Z,957.23
2023-01-15T05:35:46.578Z,957.23
2023-01-15T05:36:17.146Z,957.23
2023-01-15T05:36:47.552Z,957.23
2023-01-15T05:37:19.468Z,957.23
2023-01-15T05:37:49.541Z,957.23
2023-01-15T05:38:21.446Z,957.23
2023-01-15T05:38:51.535Z,957.23
2023-01-15T05:39:23.248Z,957.23
2023-01-15T05:39:53.548Z,957.23
2023-01-15T05:40:26.653Z,957.23
2023-01-15T05:40:56.837Z,957.23
2023-01-15T05:41:27.446Z,957.23
2023-01-15T05:41:57.542Z,957.23
2023-01-15T05:42:29.287Z,957.23
2023-01-15T05:42:59.558Z,957.23
2023-01-15T05:43:31.437Z,957.23
2023-01-15T05:44:01.638Z,957.23
2023-01-15T05:44:33.454Z,957.23
2023-01-15T05:45:04.593Z,957.23
2023-01-15T05:45:35.574Z,957.23
2023-01-15T05:46:06.622Z,957.23
2023-01-15T05:46:37.513Z,957.23
2023-01-15T05:47:07.547Z,957.23
2023-01-15T05:47:39.242Z,957.23
2023-01-15T05:48:09.536Z,957.23
2023-01-15T05:48:41.248Z,957.23
2023-01-15T05:49:11.555Z,957.23
2023-01-15T05:49:43.142Z,957.23
2023-01-15T05:50:14.141Z,957.23
2023-01-15T05:50:45.589Z,957.23
2023-01-15T05:51:16.550Z,957.23
2023-01-15T05:51:47.147Z,957.23
2023-01-15T05:52:17.570Z,957.23
2023-01-15T05:52:52.528Z,957.23
2023-01-15T05:53:19.783Z,957.23
2023-01-15T05:53:50.562Z,957.23
2023-01-15T05:54:22.336Z,957.23
2023-01-15T05:54:52.554Z,957.23
2023-01-15T05:55:24.865Z,957.23
2023-01-15T05:55:54.957Z,957.23
2023-01-15T05:56:27.132Z,957.23
2023-01-15T05:56:56.520Z,957.23
2023-01-15T05:57:28.428Z,957.23
2023-01-15T05:58:02.424Z,957.23
2023-01-15T05:58:30.343Z,957.23
2023-01-15T05:59:00.531Z,957.23
2023-01-15T05:59:32.616Z,957.23
2023-01-15T06:00:04.323Z,957.23
2023-01-15T06:00:34.379Z,957.23
2023-01-15T06:01:04.577Z,957.23
2023-01-15T06:01:37.366Z,957.23
2023-01-15T06:02:06.538Z,957.23
2023-01-15T06:02:38.414Z,957.23
2023-01-15T06:03:08.536Z,957.23
2023-01-15T06:03:40.258Z,957.23
2023-01-15T06:04:10.534Z,957.23
2023-01-15T06:04:42.454Z,957.23
2023-01-15T06:05:12.952Z,957.23
2023-01-15T06:05:44.740Z,957.23
2023-01-15T06:06:14.517Z,957.23
2023-01-15T06:06:47.223Z,957.23
2023-01-15T06:07:16.527Z,957.23
2023-01-15T06:07:53.443Z,957.23
2023-01-15T06:08:18.519Z,957.23
2023-01-15T06:08:49.519Z,957.23
2023-01-15T06:09:21.283Z,957.23
2023-01-15T06:09:51.621Z,957.23
2023-01-15T06:10:23.663Z,957.23
2023-01-15T06:10:53.549Z,957.23
2023-01-15T06:11:25.238Z,957.23
2023-01-15T06:11:56.547Z,957.23
2023-01-15T06:12:27.131Z,957.23
2023-01-15T06:12:57.547Z,957.23
2023-01-15T06:13:29.226Z,957.23
2023-01-15T06:13:59.635Z,957.23
2023-01-15T06:14:31.169Z,957.23
2023-01-15T06:15:03.264Z,957.23
2023-01-15T06:15:33.680Z,957.23
2023-01-15T06:16:03.881Z,957.23
2023-01-15T06:16:35.341Z,957.23
2023-01-15T06:17:06.623Z,957.23
2023-01-15T06:17:37.239Z,957.23
2023-01-15T06:18:07.553Z,957.23
2023-01-15T06:18:39.488Z,957.23
2023-01-15T06:19:09.545Z,957.23
2023-01-15T06:19:41.240Z,957.23
2023-01-15T06:20:11.967Z,957.23
2023-01-15T06:20:50.226Z,957.23
2023-01-15T06:20:52.785Z,957.23
2023-01-15T06:21:13.556Z,957.23
2023-01-15T06:21:45.260Z,957.23
2023-01-15T06:22:17.133Z,957.23
2023-01-15T06:22:46.546Z,957.23
2023-01-15T06:23:18.233Z,957.23
2023-01-15T06:23:48.525Z,957.23
2023-01-15T06:24:20.219Z,957.23
2023-01-15T06:24:50.543Z,957.23
2023-01-15T06:25:22.622Z,957.23
2023-01-15T06:25:52.533Z,957.23
2023-01-15T06:26:25.121Z,957.23